메인 페이지
METAR-TAF:

METAR-TAF

공항 :

Lancaster Airport

랭커스터, 펜실베이니아, 미국

위도: 40-07-13N, 경도: 076-17-40W, 고도: 123m

현재 날씨관측

예보는 54분 전, 14:53시(UTC)에 발표되었습니다.
8kt
온도 23°C
습도 47%
기압 1015 hPa
시정: 16.1km
맑음

METAR: KLNS 301453Z 35008KT 10SM CLR 23/11 A2997 RMK AO2 SLP147 T02280111 50003

시각: 11:47 (15:47 UTC)

예보

예보는 1 시간 49분 전, 13:58시(UTC)에 발표되었습니다.
예보 대상 시간: 30일 14시부터 31일 12시까지 (UTC)
북북서5kt
시정: 10km
맑음

TAF: KLNS 301358Z 3014/3112 33005KT P6SM SKC

4,000개 이상의 공항 관측 자료 및 예보 (METAR 및 TAF 보고).

지도상에서 검색 가능한 기상관측소가 노란 점과 빨간 점으로 표시되어 있습니다.

기상관측소 명을 보려면 표시 위로 마우스를 이동하세요.

날씨 관측과 예보를 보려면 클릭하세요.

지도 변경 : 확대하려면 엑스 표시가 있는 녹색 버튼, 축소하려면 빼기 표시가 있는 녹색 버튼, 다음 페이지의 지도를 보려면 녹색 화살표를 클릭하세요.


METAR-TAF: